^^
Station Historical Data
 
Daily Summary for December 10, 2017 Units:  English    Metric   Both
« Previous Day
Next Day »
Daily Weekly Monthly Yearly Custom
  Current: High: Low: Average:
Temperature: 36.5 °F 55.6 °F 27.1 °F 39.2 °F
Dew Point: 31.2 °F 33.4 °F 26.6 °F 29.3 °F
Humidity: 81% 99% 35% 72%
Wind Speed: 0.0mph 5.6mph 0.0mph 1.3mph
Wind Gust: 8.1mph 8.1mph - -
WindCalm - - WSW
Pressure: 30.32 in 30.39 in 30.25 in -
Precipitation: 0.00 in      
Historical Graphs
 
 
Tabular Data for December 10, 2017
Time Temperature Dew Point Pressure Wind Wind Speed Wind Gust Humidity Rainfall Rate (Hourly) solar Conditions
00:01 31.3 °F 30.0 °F 30.25 in Calm   3.5 mph 95% 0.00 in WeatherDisplay:10.37 W/m2 RA
00:06 31.3 °F 30.0 °F 30.25 in Calm   3.5 mph 95% 0.00 in WeatherDisplay:10.37 W/m2 RA
00:11 31.3 °F 30.0 °F 30.25 in Calm   3.5 mph 95% 0.00 in WeatherDisplay:10.37 W/m2 CLR
00:16 31.3 °F 30.0 °F 30.25 in Calm   3.5 mph 95% 0.00 in WeatherDisplay:10.37 W/m2 CLR
00:21 31.3 °F 30.0 °F 30.25 in SW 1.1 mph 3.5 mph 95% 0.00 in WeatherDisplay:10.37 W/m2 CLR
00:26 31.1 °F 29.8 °F 30.25 in Calm   3.5 mph 95% 0.00 in WeatherDisplay:10.37 W/m2 CLR
00:36 31.1 °F 29.8 °F 30.25 in SW 1.4 mph 3.5 mph 95% 0.00 in WeatherDisplay:10.37 W/m2 CLR
00:47 31.3 °F 30.0 °F 30.26 in WSW 1.3 mph 3.7 mph 95% 0.00 in WeatherDisplay:10.37 W/m2 CLR
00:52 31.3 °F 30.0 °F 30.26 in WSW 2.0 mph 3.7 mph 95% 0.00 in WeatherDisplay:10.37 W/m2 CLR
00:57 31.3 °F 30.0 °F 30.26 in West 1.7 mph 3.7 mph 95% 0.00 in WeatherDisplay:10.37 W/m2 CLR
01:02 31.1 °F 29.8 °F 30.27 in WSW 0.3 mph 3.7 mph 95% 0.00 in WeatherDisplay:10.37 W/m2 CLR
01:07 30.9 °F 29.6 °F 30.27 in SW 0.7 mph 3.7 mph 95% 0.00 in WeatherDisplay:10.37 W/m2 CLR
01:12 30.7 °F 29.4 °F 30.27 in Calm   3.7 mph 95% 0.00 in WeatherDisplay:10.37 W/m2 CLR
01:13 30.7 °F 29.7 °F 30.27 in Calm   3.7 mph 96% 0.00 in WeatherDisplay:10.37 W/m2 CLR
01:18 30.7 °F 29.7 °F 30.28 in SW 0.3 mph 3.7 mph 96% 0.00 in WeatherDisplay:10.37 W/m2 CLR
01:23 30.7 °F 29.7 °F 30.28 in SSW 1.1 mph 3.7 mph 96% 0.00 in WeatherDisplay:10.37 W/m2 CLR
01:28 30.6 °F 29.6 °F 30.28 in Calm   3.7 mph 96% 0.00 in WeatherDisplay:10.37 W/m2 CLR
01:34 30.6 °F 29.6 °F 30.28 in SW 1.7 mph 3.7 mph 96% 0.00 in WeatherDisplay:10.37 W/m2 CLR
01:49 30.6 °F 29.6 °F 30.28 in Calm   3.7 mph 96% 0.00 in WeatherDisplay:10.37 W/m2 CLR
01:54 30.6 °F 29.6 °F 30.28 in Calm   3.7 mph 96% 0.00 in WeatherDisplay:10.37 W/m2 CLR
01:59 30.4 °F 29.4 °F 30.28 in Calm   3.7 mph 96% 0.00 in WeatherDisplay:10.37 W/m2 CLR
02:04 30.2 °F 29.5 °F 30.29 in Calm   3.7 mph 97% 0.00 in WeatherDisplay:10.37 W/m2 CLR
02:15 29.8 °F 29.1 °F 30.29 in Calm   3.7 mph 97% 0.00 in WeatherDisplay:10.37 W/m2 CLR
02:20 29.8 °F 29.1 °F 30.29 in Calm   3.7 mph 97% 0.00 in WeatherDisplay:10.37 W/m2 CLR
02:30 29.5 °F 29.0 °F 30.30 in Calm   3.7 mph 98% 0.00 in WeatherDisplay:10.37 W/m2 CLR
02:40 29.3 °F 28.8 °F 30.31 in Calm   3.7 mph 98% 0.00 in WeatherDisplay:10.37 W/m2 CLR
02:45 29.3 °F 29.1 °F 30.31 in Calm   3.7 mph 99% 0.00 in WeatherDisplay:10.37 W/m2 CLR
02:50 29.3 °F 29.1 °F 30.31 in Calm   3.7 mph 99% 0.00 in WeatherDisplay:10.37 W/m2 CLR
02:56 29.3 °F 29.1 °F 30.31 in SW 0.9 mph 3.7 mph 99% 0.00 in WeatherDisplay:10.37 W/m2 CLR
03:01 29.3 °F 29.1 °F 30.31 in Calm   3.7 mph 99% 0.00 in WeatherDisplay:10.37 W/m2 CLR
03:06 29.3 °F 29.1 °F 30.31 in Calm   3.7 mph 99% 0.00 in WeatherDisplay:10.37 W/m2 CLR
03:11 29.3 °F 29.1 °F 30.31 in SSW 0.8 mph 3.7 mph 99% 0.00 in WeatherDisplay:10.37 W/m2 CLR
03:16 29.5 °F 29.3 °F 30.31 in WSW 2.4 mph 3.7 mph 99% 0.00 in WeatherDisplay:10.37 W/m2 CLR
03:21 29.8 °F 29.6 °F 30.31 in WNW 0.5 mph 3.7 mph 99% 0.00 in WeatherDisplay:10.37 W/m2 CLR
03:26 29.8 °F 29.6 °F 30.31 in West 2.2 mph 3.7 mph 99% 0.00 in WeatherDisplay:10.37 W/m2 CLR
03:31 29.8 °F 29.6 °F 30.31 in West 2.0 mph 3.7 mph 99% 0.00 in WeatherDisplay:10.37 W/m2 CLR
03:37 29.8 °F 29.6 °F 30.31 in West 0.9 mph 3.7 mph 99% 0.00 in WeatherDisplay:10.37 W/m2 CLR
03:42 29.8 °F 29.6 °F 30.31 in West 1.4 mph 3.7 mph 99% 0.00 in WeatherDisplay:10.37 W/m2 CLR
03:47 29.8 °F 29.6 °F 30.31 in WNW 1.7 mph 3.7 mph 99% 0.00 in WeatherDisplay:10.37 W/m2 CLR
03:52 29.8 °F 29.6 °F 30.31 in West 2.5 mph 3.7 mph 99% 0.00 in WeatherDisplay:10.37 W/m2 CLR
03:57 29.7 °F 29.5 °F 30.31 in Calm   3.7 mph 99% 0.00 in WeatherDisplay:10.37 W/m2 CLR
04:07 29.3 °F 28.8 °F 30.31 in SSW 0.3 mph 3.7 mph 98% 0.00 in WeatherDisplay:10.37 W/m2 CLR
04:18 29.1 °F 28.6 °F 30.31 in Calm   3.7 mph 98% 0.00 in WeatherDisplay:10.37 W/m2 CLR
04:23 28.9 °F 28.4 °F 30.31 in SE 1.7 mph 3.7 mph 98% 0.00 in WeatherDisplay:10.37 W/m2 CLR
04:28 28.9 °F 28.4 °F 30.31 in South 1.5 mph 3.7 mph 98% 0.00 in WeatherDisplay:10.37 W/m2 CLR
04:33 28.9 °F 28.4 °F 30.31 in NW 2.7 mph 3.7 mph 98% 0.00 in WeatherDisplay:10.37 W/m2 CLR
04:38 29.1 °F 28.6 °F 30.31 in SE 0.8 mph 3.7 mph 98% 0.00 in WeatherDisplay:10.37 W/m2 CLR
04:43 28.9 °F 28.2 °F 30.31 in SSE 0.5 mph 3.7 mph 97% 0.00 in WeatherDisplay:10.37 W/m2 CLR
04:48 28.9 °F 28.2 °F 30.31 in Calm   3.7 mph 97% 0.00 in WeatherDisplay:10.37 W/m2 CLR
04:53 28.9 °F 28.2 °F 30.31 in SSW 1.8 mph 3.7 mph 97% 0.00 in WeatherDisplay:10.37 W/m2 CLR
04:59 28.9 °F 28.2 °F 30.31 in Calm   3.7 mph 97% 0.00 in WeatherDisplay:10.37 W/m2 CLR
05:04 28.8 °F 28.1 °F 30.31 in Calm   3.7 mph 97% 0.00 in WeatherDisplay:10.37 W/m2 CLR
05:14 28.2 °F 27.5 °F 30.32 in Calm   3.7 mph 97% 0.00 in WeatherDisplay:10.37 W/m2 CLR
05:19 28.2 °F 27.5 °F 30.32 in Calm   3.7 mph 97% 0.00 in WeatherDisplay:10.37 W/m2 CLR
05:24 28.2 °F 27.5 °F 30.32 in SSE 1.3 mph 3.7 mph 97% 0.00 in WeatherDisplay:10.37 W/m2 CLR
05:29 28.2 °F 27.5 °F 30.32 in Calm   3.7 mph 97% 0.00 in WeatherDisplay:10.37 W/m2 CLR
05:34 28.0 °F 27.3 °F 30.32 in Calm   3.7 mph 97% 0.00 in WeatherDisplay:10.37 W/m2 CLR
05:40 28.0 °F 27.5 °F 30.32 in Calm   3.7 mph 98% 0.00 in WeatherDisplay:10.37 W/m2 CLR
05:55 27.9 °F 27.7 °F 30.32 in Calm   3.7 mph 99% 0.00 in WeatherDisplay:10.37 W/m2 CLR
06:00 27.9 °F 27.7 °F 30.32 in ESE 1.3 mph 3.7 mph 99% 0.00 in WeatherDisplay:10.37 W/m2 CLR
06:05 27.9 °F 27.7 °F 30.32 in SE 0.1 mph 3.7 mph 99% 0.00 in WeatherDisplay:10.37 W/m2 CLR
06:11 27.7 °F 27.5 °F 30.32 in SE 0.2 mph 3.7 mph 99% 0.00 in WeatherDisplay:10.37 W/m2 CLR
06:16 27.7 °F 27.5 °F 30.32 in Calm   3.7 mph 99% 0.00 in WeatherDisplay:10.37 W/m2 CLR
06:21 27.9 °F 27.7 °F 30.32 in Calm   3.7 mph 99% 0.00 in WeatherDisplay:10.37 W/m2 CLR
06:26 27.7 °F 27.5 °F 30.34 in Calm   3.7 mph 99% 0.00 in WeatherDisplay:10.37 W/m2 CLR
06:31 27.5 °F 27.3 °F 30.34 in Calm   3.7 mph 99% 0.00 in WeatherDisplay:10.37 W/m2 CLR
06:36 27.5 °F 27.0 °F 30.34 in Calm   3.7 mph 98% 0.00 in WeatherDisplay:10.37 W/m2 CLR
06:41 27.3 °F 26.8 °F 30.34 in Calm   3.7 mph 98% 0.00 in WeatherDisplay:10.37 W/m2 CLR
06:47 27.1 °F 26.6 °F 30.34 in Calm   3.7 mph 98% 0.00 in WeatherDisplay:10.37 W/m2 CLR
06:52 27.1 °F 26.6 °F 30.35 in Calm   3.7 mph 98% 0.00 in WeatherDisplay:10.37 W/m2 CLR
06:57 27.3 °F 26.8 °F 30.35 in Calm   3.7 mph 98% 0.00 in WeatherDisplay:10.37 W/m2 CLR
07:02 27.5 °F 27.0 °F 30.35 in Calm   3.7 mph 98% 0.00 in WeatherDisplay:10.37 W/m2 CLR
07:07 28.0 °F 27.3 °F 30.35 in Calm   3.7 mph 97% 0.00 in WeatherDisplay:10.37 W/m2 CLR
07:12 28.2 °F 27.5 °F 30.35 in Calm   3.7 mph 97% 0.00 in WeatherDisplay:10.37 W/m2 CLR
07:18 28.9 °F 28.2 °F 30.35 in Calm   3.7 mph 97% 0.00 in WeatherDisplay:10.37 W/m2 CLR
07:23 29.5 °F 28.5 °F 30.35 in Calm   3.7 mph 96% 0.00 in WeatherDisplay:10.37 W/m2 CLR
07:33 30.9 °F 29.1 °F 30.36 in Calm   3.7 mph 93% 0.00 in WeatherDisplay:10.37 W/m2 CLR
07:48 32.7 °F 29.5 °F 30.36 in Calm   3.7 mph 88% 0.00 in WeatherDisplay:10.37 W/m2 CLR
07:53 34.3 °F 31.1 °F 30.37 in Calm   3.7 mph 88% 0.00 in WeatherDisplay:10.37 W/m2 CLR
07:58 35.6 °F 31.8 °F 30.37 in SE 1.0 mph 3.7 mph 86% 0.00 in WeatherDisplay:10.37 W/m2 CLR
08:04 37.2 °F 31.6 °F 30.37 in Calm   3.7 mph 80% 0.00 in WeatherDisplay:10.37 W/m2 CLR
08:09 37.9 °F 31.0 °F 30.37 in South 1.5 mph 3.7 mph 76% 0.00 in WeatherDisplay:10.37 W/m2 CLR
08:14 37.9 °F 30.7 °F 30.37 in West 2.3 mph 3.7 mph 75% 0.00 in WeatherDisplay:10.37 W/m2 CLR
08:19 38.1 °F 30.5 °F 30.37 in NW 1.8 mph 3.7 mph 74% 0.00 in WeatherDisplay:10.37 W/m2 CLR
08:24 37.8 °F 29.2 °F 30.37 in WSW 2.3 mph 4.6 mph 71% 0.00 in WeatherDisplay:10.37 W/m2 CLR
08:29 37.6 °F 29.7 °F 30.37 in WNW 2.3 mph 4.6 mph 73% 0.00 in WeatherDisplay:10.37 W/m2 CLR
08:39 39.0 °F 29.7 °F 30.37 in SSE 2.2 mph 4.6 mph 69% 0.00 in WeatherDisplay:10.37 W/m2 CLR
08:45 39.4 °F 30.8 °F 30.37 in ENE 1.4 mph 4.6 mph 71% 0.00 in WeatherDisplay:10.37 W/m2 CLR
08:50 39.7 °F 30.4 °F 30.38 in NNW 2.3 mph 4.6 mph 69% 0.00 in WeatherDisplay:10.37 W/m2 CLR
09:00 40.6 °F 30.1 °F 30.38 in NW 1.4 mph 4.6 mph 66% 0.00 in WeatherDisplay:10.37 W/m2 CLR
09:05 40.8 °F 29.9 °F 30.38 in NW 1.5 mph 4.6 mph 65% 0.00 in WeatherDisplay:10.37 W/m2 CLR
09:10 41.4 °F 29.3 °F 30.38 in NNW 3.8 mph 5.8 mph 62% 0.00 in WeatherDisplay:10.37 W/m2 CLR
09:15 41.9 °F 29.8 °F 30.38 in NW 1.9 mph 5.8 mph 62% 0.00 in WeatherDisplay:10.37 W/m2 CLR
09:26 43.3 °F 30.7 °F 30.39 in WNW 2.8 mph 5.8 mph 61% 0.00 in WeatherDisplay:10.37 W/m2 CLR
09:31 43.2 °F 29.0 °F 30.39 in WNW 0.8 mph 5.8 mph 57% 0.00 in WeatherDisplay:10.37 W/m2 CLR
09:36 43.9 °F 30.1 °F 30.39 in West 1.3 mph 5.8 mph 58% 0.00 in WeatherDisplay:10.37 W/m2 CLR
09:46 45.7 °F 30.4 °F 30.39 in SE 2.2 mph 5.8 mph 55% 0.00 in WeatherDisplay:10.37 W/m2 CLR
09:51 46.4 °F 29.7 °F 30.39 in SSW 4.4 mph 5.8 mph 52% 0.00 in WeatherDisplay:10.37 W/m2 CLR
09:56 46.0 °F 29.3 °F 30.39 in West 3.2 mph 5.8 mph 52% 0.00 in WeatherDisplay:10.37 W/m2 CLR
10:02 46.0 °F 28.9 °F 30.39 in West 2.5 mph 5.8 mph 51% 0.00 in WeatherDisplay:10.37 W/m2 CLR
10:07 47.3 °F 29.1 °F 30.39 in West 3.6 mph 5.8 mph 49% 0.00 in WeatherDisplay:10.37 W/m2 CLR
10:12 47.1 °F 28.9 °F 30.39 in West 2.4 mph 5.8 mph 49% 0.00 in WeatherDisplay:10.37 W/m2 CLR
10:17 47.3 °F 27.5 °F 30.39 in West 4.0 mph 5.8 mph 46% 0.00 in WeatherDisplay:10.37 W/m2 CLR
10:22 48.2 °F 28.4 °F 30.39 in WNW 3.4 mph 5.8 mph 46% 0.00 in WeatherDisplay:10.37 W/m2 CLR
10:32 49.5 °F 29.6 °F 30.38 in West 3.7 mph 5.8 mph 46% 0.00 in WeatherDisplay:10.37 W/m2 CLR
10:43 48.6 °F 28.2 °F 30.38 in NW 1.3 mph 5.8 mph 45% 0.00 in WeatherDisplay:10.37 W/m2 CLR
10:53 50.0 °F 27.8 °F 30.37 in WNW 4.5 mph 5.8 mph 42% 0.00 in WeatherDisplay:10.37 W/m2 CLR
10:58 50.4 °F 28.1 °F 30.37 in WNW 3.7 mph 5.8 mph 42% 0.00 in WeatherDisplay:10.37 W/m2 CLR
11:03 51.3 °F 29.5 °F 30.37 in NW 2.2 mph 5.8 mph 43% 0.00 in WeatherDisplay:10.37 W/m2 CLR
11:08 51.8 °F 29.4 °F 30.37 in North 2.9 mph 5.8 mph 42% 0.00 in WeatherDisplay:10.37 W/m2 CLR
11:13 51.8 °F 30.0 °F 30.37 in NW 2.0 mph 5.8 mph 43% 0.00 in WeatherDisplay:10.37 W/m2 CLR
11:18 52.0 °F 27.8 °F 30.37 in WNW 3.3 mph 5.8 mph 39% 0.00 in WeatherDisplay:10.37 W/m2 CLR
11:32 53.4 °F 29.7 °F 30.36 in West 2.3 mph 5.8 mph 40% 0.00 in WeatherDisplay:10.37 W/m2 CLR
11:42 52.2 °F 28.6 °F 30.35 in West 4.7 mph 5.8 mph 40% 0.00 in WeatherDisplay:10.37 W/m2 CLR
12:01 53.4 °F 28.4 °F 30.35 in WNW 2.6 mph 5.8 mph 38% 0.00 in WeatherDisplay:10.37 W/m2 CLR
12:06 51.8 °F 28.8 °F 30.34 in SSW 2.8 mph 5.8 mph 41% 0.00 in WeatherDisplay:10.37 W/m2 CLR
12:11 54.5 °F 29.4 °F 30.34 in WSW 2.3 mph 5.8 mph 38% 0.00 in WeatherDisplay:10.37 W/m2 CLR
12:21 54.0 °F 28.3 °F 30.34 in WSW 2.0 mph 5.8 mph 37% 0.00 in WeatherDisplay:10.37 W/m2 CLR
12:26 54.5 °F 28.1 °F 30.33 in WNW 5.6 mph 6.3 mph 36% 0.00 in WeatherDisplay:10.37 W/m2 CLR
12:31 55.6 °F 29.0 °F 30.33 in NW 3.0 mph 6.3 mph 36% 0.00 in WeatherDisplay:10.37 W/m2 CLR
12:36 55.4 °F 28.9 °F 30.33 in NNW 3.2 mph 6.3 mph 36% 0.00 in WeatherDisplay:10.37 W/m2 CLR
12:47 55.0 °F 29.2 °F 30.32 in NNW 2.0 mph 6.3 mph 37% 0.00 in WeatherDisplay:10.37 W/m2 CLR
12:52 54.7 °F 28.2 °F 30.32 in WNW 2.0 mph 6.3 mph 36% 0.00 in WeatherDisplay:10.37 W/m2 CLR
12:58 54.9 °F 27.7 °F 30.32 in WSW 4.7 mph 6.3 mph 35% 0.00 in WeatherDisplay:10.37 W/m2 CLR
13:08 54.7 °F 28.2 °F 30.31 in WSW 3.4 mph 6.9 mph 36% 0.00 in WeatherDisplay:10.37 W/m2 CLR
13:23 54.0 °F 28.9 °F 30.31 in NW 4.0 mph 7.3 mph 38% 0.00 in WeatherDisplay:10.37 W/m2 CLR
13:29 53.6 °F 29.2 °F 30.31 in WNW 3.0 mph 7.3 mph 39% 0.00 in WeatherDisplay:10.37 W/m2 CLR
13:34 54.3 °F 29.8 °F 30.31 in WSW 3.1 mph 7.3 mph 39% 0.00 in WeatherDisplay:10.37 W/m2 CLR
13:39 53.4 °F 27.8 °F 30.31 in West 4.4 mph 8.1 mph 37% 0.00 in WeatherDisplay:10.37 W/m2 CLR
13:44 53.8 °F 29.4 °F 30.31 in West 2.8 mph 8.1 mph 39% 0.00 in WeatherDisplay:10.37 W/m2 CLR
13:55 54.1 °F 29.0 °F 30.30 in West 3.1 mph 8.1 mph 38% 0.00 in WeatherDisplay:10.37 W/m2 CLR
14:00 53.4 °F 29.0 °F 30.30 in West 3.6 mph 8.1 mph 39% 0.00 in WeatherDisplay:10.37 W/m2 CLR
14:05 53.8 °F 28.1 °F 30.30 in WNW 5.5 mph 8.1 mph 37% 0.00 in WeatherDisplay:10.37 W/m2 CLR
14:08 53.4 °F 27.1 °F 30.30 in WNW 3.6 mph 8.1 mph 36% 0.00 in WeatherDisplay:10.37 W/m2 CLR
14:13 54.1 °F 29.0 °F 30.30 in NW 2.3 mph 8.1 mph 38% 0.00 in WeatherDisplay:10.37 W/m2 CLR
14:18 54.0 °F 28.3 °F 30.30 in NW 3.5 mph 8.1 mph 37% 0.00 in WeatherDisplay:10.37 W/m2 CLR
14:23 55.4 °F 28.9 °F 30.30 in WNW 2.7 mph 8.1 mph 36% 0.00 in WeatherDisplay:10.37 W/m2 CLR
14:28 53.2 °F 27.6 °F 30.30 in NW 3.5 mph 8.1 mph 37% 0.00 in WeatherDisplay:10.37 W/m2 CLR
14:38 53.2 °F 28.2 °F 30.30 in West 4.3 mph 8.1 mph 38% 0.00 in WeatherDisplay:10.37 W/m2 CLR
14:43 52.9 °F 28.0 °F 30.30 in West 2.3 mph 8.1 mph 38% 0.00 in WeatherDisplay:10.37 W/m2 CLR
14:49 52.9 °F 28.6 °F 30.30 in West 2.7 mph 8.1 mph 39% 0.00 in WeatherDisplay:10.37 W/m2 CLR
14:54 52.9 °F 28.0 °F 30.29 in WNW 3.8 mph 8.1 mph 38% 0.00 in WeatherDisplay:10.37 W/m2 CLR
14:59 52.5 °F 28.2 °F 30.29 in WNW 3.1 mph 8.1 mph 39% 0.00 in WeatherDisplay:10.37 W/m2 CLR
15:19 53.4 °F 29.7 °F 30.30 in SSW 1.6 mph 8.1 mph 40% 0.00 in WeatherDisplay:10.37 W/m2 CLR
15:25 52.5 °F 28.8 °F 30.30 in South 3.6 mph 8.1 mph 40% 0.00 in WeatherDisplay:10.37 W/m2 CLR
15:30 51.6 °F 28.6 °F 30.30 in WSW 1.7 mph 8.1 mph 41% 0.00 in WeatherDisplay:10.37 W/m2 CLR
15:45 50.0 °F 28.4 °F 30.29 in WNW 2.4 mph 8.1 mph 43% 0.00 in WeatherDisplay:10.37 W/m2 CLR
15:50 49.6 °F 28.6 °F 30.29 in West 3.2 mph 8.1 mph 44% 0.00 in WeatherDisplay:10.37 W/m2 CLR
15:55 49.3 °F 28.8 °F 30.29 in WNW 2.5 mph 8.1 mph 45% 0.00 in WeatherDisplay:10.37 W/m2 CLR
16:00 49.1 °F 28.7 °F 30.29 in NW 2.7 mph 8.1 mph 45% 0.00 in WeatherDisplay:10.37 W/m2 CLR
16:06 48.9 °F 29.0 °F 30.29 in West 2.2 mph 8.1 mph 46% 0.00 in WeatherDisplay:10.37 W/m2 CLR
16:11 48.6 °F 28.7 °F 30.29 in WSW 1.9 mph 8.1 mph 46% 0.00 in WeatherDisplay:10.37 W/m2 CLR
16:16 48.4 °F 29.1 °F 30.29 in WSW 0.7 mph 8.1 mph 47% 0.00 in WeatherDisplay:10.37 W/m2 CLR
16:21 48.0 °F 29.7 °F 30.29 in Calm   8.1 mph 49% 0.00 in WeatherDisplay:10.37 W/m2 CLR
16:26 47.7 °F 30.0 °F 30.30 in Calm   8.1 mph 50% 0.00 in WeatherDisplay:10.37 W/m2 CLR
16:31 47.1 °F 30.8 °F 30.30 in Calm   8.1 mph 53% 0.00 in WeatherDisplay:10.37 W/m2 CLR
16:36 46.6 °F 33.4 °F 30.30 in Calm   8.1 mph 60% 0.00 in WeatherDisplay:10.37 W/m2 CLR
16:41 45.5 °F 32.0 °F 30.30 in Calm   8.1 mph 59% 0.00 in WeatherDisplay:10.37 W/m2 CLR
16:46 44.8 °F 30.5 °F 30.30 in Calm   8.1 mph 57% 0.00 in WeatherDisplay:10.37 W/m2 CLR
16:52 44.4 °F 31.0 °F 30.30 in Calm   8.1 mph 59% 0.00 in WeatherDisplay:10.37 W/m2 CLR
16:57 43.9 °F 30.9 °F 30.30 in Calm   8.1 mph 60% 0.00 in WeatherDisplay:10.37 W/m2 CLR
17:02 43.5 °F 30.5 °F 30.30 in Calm   8.1 mph 60% 0.00 in WeatherDisplay:10.37 W/m2 CLR
17:12 42.4 °F 30.3 °F 30.30 in Calm   8.1 mph 62% 0.00 in WeatherDisplay:10.37 W/m2 CLR
17:17 41.9 °F 30.6 °F 30.30 in Calm   8.1 mph 64% 0.00 in WeatherDisplay:10.37 W/m2 CLR
17:22 41.5 °F 30.6 °F 30.30 in Calm   8.1 mph 65% 0.00 in WeatherDisplay:10.37 W/m2 CLR
17:28 41.4 °F 30.5 °F 30.30 in Calm   8.1 mph 65% 0.00 in WeatherDisplay:10.37 W/m2 CLR
17:43 40.6 °F 30.5 °F 30.31 in Calm   8.1 mph 67% 0.00 in WeatherDisplay:10.37 W/m2 CLR
17:53 40.3 °F 30.9 °F 30.31 in Calm   8.1 mph 69% 0.00 in WeatherDisplay:10.37 W/m2 CLR
18:08 39.6 °F 31.7 °F 30.31 in Calm   8.1 mph 73% 0.00 in WeatherDisplay:10.37 W/m2 CLR
18:14 39.2 °F 30.6 °F 30.31 in Calm   8.1 mph 71% 0.00 in WeatherDisplay:10.37 W/m2 CLR
18:24 38.7 °F 30.8 °F 30.31 in Calm   8.1 mph 73% 0.00 in WeatherDisplay:10.37 W/m2 CLR
18:29 38.7 °F 30.4 °F 30.31 in Calm   8.1 mph 72% 0.00 in WeatherDisplay:10.37 W/m2 CLR
18:34 38.5 °F 30.6 °F 30.31 in Calm   8.1 mph 73% 0.00 in WeatherDisplay:10.37 W/m2 CLR
18:39 38.7 °F 30.8 °F 30.31 in Calm   8.1 mph 73% 0.00 in WeatherDisplay:10.37 W/m2 CLR
18:45 38.7 °F 31.1 °F 30.31 in Calm   8.1 mph 74% 0.00 in WeatherDisplay:10.37 W/m2 CLR
18:50 38.7 °F 31.1 °F 30.31 in Calm   8.1 mph 74% 0.00 in WeatherDisplay:10.37 W/m2 CLR
19:00 38.1 °F 30.9 °F 30.31 in Calm   8.1 mph 75% 0.00 in WeatherDisplay:10.37 W/m2 CLR
19:05 37.9 °F 31.3 °F 30.32 in Calm   8.1 mph 77% 0.00 in WeatherDisplay:10.37 W/m2 CLR
19:10 37.9 °F 31.0 °F 30.32 in Calm   8.1 mph 76% 0.00 in WeatherDisplay:10.37 W/m2 CLR
19:15 37.9 °F 31.0 °F 30.32 in Calm   8.1 mph 76% 0.00 in WeatherDisplay:10.37 W/m2 CLR
19:21 37.8 °F 30.9 °F 30.32 in Calm   8.1 mph 76% 0.00 in WeatherDisplay:10.37 W/m2 CLR
19:26 37.8 °F 30.9 °F 30.31 in Calm   8.1 mph 76% 0.00 in WeatherDisplay:10.37 W/m2 CLR
19:31 37.6 °F 31.4 °F 30.31 in Calm   8.1 mph 78% 0.00 in WeatherDisplay:10.37 W/m2 CLR
19:46 36.9 °F 31.0 °F 30.32 in Calm   8.1 mph 79% 0.00 in WeatherDisplay:10.37 W/m2 CLR
19:51 36.9 °F 31.0 °F 30.32 in Calm   8.1 mph 79% 0.00 in WeatherDisplay:10.37 W/m2 CLR
19:56 36.7 °F 30.2 °F 30.32 in Calm   8.1 mph 77% 0.00 in WeatherDisplay:10.37 W/m2 CLR
20:01 36.7 °F 31.1 °F 30.32 in Calm   8.1 mph 80% 0.00 in WeatherDisplay:10.37 W/m2 CLR
20:12 36.5 °F 31.2 °F 30.32 in Calm   8.1 mph 81% 0.00 in WeatherDisplay:10.37 W/m2 CLR
Daleville, Alabama USA
Compliments of Weather Underground - 4 mb